Time;durP1;ratioP1;P1;durP2;ratioP2;P2;SDS_P1;SDS_P2;PMS_P1;PMS_P2;Temp;Humidity;BMP_temperature;BMP_pressure;BME280_temperature;BME280_humidity;BME280_pressure;Samples;Min_cycle;Max_cycle;Signal;HPM_P1;HPM_P2
2024/04/07 00:00:48;;;;;;;5.07;1.17;;;;;;;13.59;46.95;93094.22;2028641;70;20547;-71
2024/04/07 00:03:14;;;;;;;2.60;1.27;;;;;;;13.71;46.37;93074.38;2028178;70;20538;-72
2024/04/07 00:05:40;;;;;;;3.90;1.30;;;;;;;13.43;46.75;93076.38;2024681;70;20212;-73
2024/04/07 00:08:07;;;;;;;2.75;1.30;;;;;;;13.52;46.97;93081.13;2028294;70;20511;-74
2024/04/07 00:10:35;;;;;;;2.53;1.20;;;;;;;13.30;48.42;93085.50;2024906;70;20163;-71
2024/04/07 00:13:01;;;;;;;4.45;1.10;;;;;;;13.16;48.03;93080.50;2028399;70;20205;-72
2024/04/07 00:15:26;;;;;;;2.33;1.30;;;;;;;13.19;48.01;93096.22;2028410;70;20572;-72
2024/04/07 00:17:53;;;;;;;2.83;1.33;;;;;;;13.33;47.27;93087.84;2028518;70;20241;-72
2024/04/07 00:20:18;;;;;;;4.47;1.30;;;;;;;13.27;48.04;93095.97;2028394;70;20160;-72
2024/04/07 00:22:44;;;;;;;3.13;1.10;;;;;;;13.20;46.95;93096.97;2028346;70;20168;-71
2024/04/07 00:25:10;;;;;;;3.17;1.05;;;;;;;13.30;47.19;93106.03;2028411;70;20152;-72
2024/04/07 00:27:36;;;;;;;2.75;1.27;;;;;;;13.09;47.88;93103.38;2028381;70;20217;-72
2024/04/07 00:30:01;;;;;;;1.85;1.10;;;;;;;12.71;48.39;93094.84;2028407;70;20164;-73
2024/04/07 00:32:27;;;;;;;2.75;0.98;;;;;;;13.03;47.61;93098.09;2024777;70;20157;-73
2024/04/07 00:34:53;;;;;;;3.03;1.33;;;;;;;13.16;47.57;93103.09;2028360;70;20157;-72
2024/04/07 00:37:18;;;;;;;3.47;1.30;;;;;;;13.07;47.88;93098.34;2028116;70;20566;-74
2024/04/07 00:39:44;;;;;;;2.83;1.35;;;;;;;12.81;48.32;93091.88;2028129;70;20193;-72
2024/04/07 00:42:10;;;;;;;5.38;1.40;;;;;;;13.03;47.57;93100.19;2028597;70;20180;-72
2024/04/07 00:44:37;;;;;;;2.42;1.20;;;;;;;12.98;48.35;93099.22;2027986;70;20221;-72
2024/04/07 00:47:03;;;;;;;2.78;1.15;;;;;;;12.91;48.58;93111.50;2028578;70;20603;-72
2024/04/07 00:49:31;;;;;;;4.55;1.40;;;;;;;12.79;49.43;93105.16;2028010;70;20605;-71
2024/04/07 00:51:58;;;;;;;5.25;1.30;;;;;;;12.14;50.46;93119.66;2024768;70;20530;-71
2024/04/07 00:54:24;;;;;;;5.10;1.65;;;;;;;12.73;48.90;93123.19;2027967;70;20179;-71
2024/04/07 00:56:50;;;;;;;5.53;1.60;;;;;;;12.69;48.71;93116.56;2028316;70;20171;-70
2024/04/07 00:59:16;;;;;;;2.85;1.48;;;;;;;12.69;49.89;93119.41;2027968;70;20160;-72
2024/04/07 01:01:42;;;;;;;5.03;1.40;;;;;;;12.70;49.33;93126.53;2028251;70;20236;-71
2024/04/07 01:04:08;;;;;;;7.93;1.60;;;;;;;12.82;49.28;93129.34;2028390;70;20185;-74
2024/04/07 01:06:34;;;;;;;3.85;1.30;;;;;;;12.76;48.46;93126.91;2028121;70;20153;-73
2024/04/07 01:09:00;;;;;;;5.63;1.20;;;;;;;12.30;49.47;93119.91;2028408;70;20256;-72
2024/04/07 01:11:27;;;;;;;3.75;1.30;;;;;;;12.19;49.87;93120.66;2027951;70;20292;-75
2024/04/07 01:13:53;;;;;;;2.30;1.08;;;;;;;12.65;48.80;93122.00;2024680;70;20180;-72
2024/04/07 01:16:19;;;;;;;2.60;1.10;;;;;;;12.76;48.52;93114.88;2028475;70;20296;-73
2024/04/07 01:18:45;;;;;;;3.67;1.58;;;;;;;12.54;49.35;93125.56;2028533;70;20610;-72
2024/04/07 01:21:11;;;;;;;2.80;1.27;;;;;;;12.32;49.87;93105.19;2028695;70;20159;-72
2024/04/07 01:23:36;;;;;;;5.05;1.38;;;;;;;12.45;50.33;93118.69;2028417;70;20144;-74
2024/04/07 01:26:03;;;;;;;4.63;1.05;;;;;;;12.48;50.01;93131.59;2028285;70;20640;-72
2024/04/07 01:28:28;;;;;;;4.07;1.60;;;;;;;12.49;50.29;93129.50;2028305;70;20167;-72
2024/04/07 01:30:54;;;;;;;2.75;1.20;;;;;;;12.64;47.07;93124.06;2028358;70;20505;-73
2024/04/07 01:33:20;;;;;;;2.97;1.20;;;;;;;12.75;46.76;93142.38;2021952;70;20166;-76
2024/04/07 01:35:46;;;;;;;3.67;1.10;;;;;;;12.76;46.89;93140.28;2028088;70;20149;-75
2024/04/07 01:38:12;;;;;;;1.95;1.13;;;;;;;12.76;46.69;93135.38;2028394;70;20161;-75
2024/04/07 01:40:38;;;;;;;2.92;1.13;;;;;;;12.83;48.14;93123.09;2028326;70;20275;-73
2024/04/07 01:43:04;;;;;;;4.65;1.20;;;;;;;12.51;48.02;93121.13;2027784;70;20156;-73
2024/04/07 01:45:30;;;;;;;4.60;1.33;;;;;;;12.64;48.01;93121.25;2027983;70;20192;-71
2024/04/07 01:47:55;;;;;;;3.30;1.08;;;;;;;12.56;48.94;93120.06;2028015;70;20176;-73
2024/04/07 01:50:21;;;;;;;3.05;1.02;;;;;;;12.46;48.45;93123.72;2028023;70;20230;-72
2024/04/07 01:52:47;;;;;;;1.90;0.90;;;;;;;12.49;48.57;93118.19;2028367;70;20180;-72
2024/04/07 01:55:13;;;;;;;2.47;1.23;;;;;;;12.05;49.52;93128.22;2028322;70;20176;-72
2024/04/07 01:57:38;;;;;;;2.22;1.10;;;;;;;12.30;49.28;93131.22;2028430;70;20153;-72
2024/04/07 02:00:07;;;;;;;2.85;1.45;;;;;;;12.20;49.31;93133.41;2028247;70;20590;-76
2024/04/07 02:02:34;;;;;;;4.82;1.10;;;;;;;12.28;49.17;93136.75;2028801;70;20176;-75
2024/04/07 02:05:00;;;;;;;3.63;1.00;;;;;;;12.35;49.18;93132.91;2025283;70;20200;-73
2024/04/07 02:07:26;;;;;;;2.63;1.20;;;;;;;12.25;48.26;93129.50;2025353;70;20175;-75
2024/04/07 02:09:51;;;;;;;3.42;1.20;;;;;;;12.22;49.47;93130.69;2028776;70;20662;-76
2024/04/07 02:12:17;;;;;;;1.67;1.15;;;;;;;12.19;48.81;93131.94;2028708;70;20212;-73
2024/04/07 02:14:43;;;;;;;4.95;1.17;;;;;;;12.31;48.59;93112.19;2028515;70;20251;-72
2024/04/07 02:17:11;;;;;;;2.83;1.10;;;;;;;12.21;49.05;93120.75;2025348;70;20486;-73
2024/04/07 02:19:38;;;;;;;3.42;1.00;;;;;;;12.23;48.62;93126.53;2028826;70;20155;-75
2024/04/07 02:22:07;;;;;;;2.33;1.02;;;;;;;12.40;48.09;93119.78;2028632;70;20163;-72
2024/04/07 02:24:33;;;;;;;4.63;1.67;;;;;;;12.19;47.76;93120.66;2028625;70;20170;-73
2024/04/07 02:26:58;;;;;;;3.13;1.15;;;;;;;12.00;48.53;93121.59;2025071;70;20176;-71
2024/04/07 02:29:24;;;;;;;3.85;1.05;;;;;;;12.10;48.12;93121.50;2028389;70;20168;-72
2024/04/07 02:31:50;;;;;;;3.72;1.20;;;;;;;12.17;47.50;93128.97;2028305;70;20537;-72
2024/04/07 02:34:16;;;;;;;2.00;0.88;;;;;;;12.02;49.09;93132.28;2025194;70;20144;-74
2024/04/07 02:36:42;;;;;;;1.70;1.10;;;;;;;11.86;48.78;93132.72;2028837;70;20171;-72
2024/04/07 02:39:09;;;;;;;1.67;1.00;;;;;;;12.03;48.88;93136.56;2028735;70;20191;-71
2024/04/07 02:41:40;;;;;;;2.30;0.95;;;;;;;12.10;48.31;93124.31;2029007;70;20167;-72
2024/04/07 02:44:06;;;;;;;3.38;1.08;;;;;;;12.05;49.23;93142.31;2028834;70;20152;-71
2024/04/07 02:49:17;;;;;;;2.30;0.93;;;;;;;12.09;49.29;93120.75;2028774;70;20632;-72
2024/04/07 02:51:42;;;;;;;3.17;1.00;;;;;;;11.53;49.78;93137.63;2029011;70;20140;-71
2024/04/07 02:54:10;;;;;;;4.95;1.02;;;;;;;11.52;50.25;93124.88;2028845;70;20175;-71
2024/04/07 02:56:36;;;;;;;3.35;1.58;;;;;;;11.85;49.33;93142.53;2028882;70;20232;-70
2024/04/07 02:59:02;;;;;;;3.53;1.52;;;;;;;11.87;49.10;93130.66;2028899;70;20159;-72
2024/04/07 03:01:27;;;;;;;7.68;3.28;;;;;;;11.85;49.64;93125.63;2025185;70;20129;-71
2024/04/07 03:03:54;;;;;;;6.40;3.17;;;;;;;11.92;49.21;93127.47;2028652;70;20244;-71
2024/04/07 03:06:19;;;;;;;5.13;2.30;;;;;;;11.91;49.46;93126.00;2028832;70;20498;-71
2024/04/07 03:08:45;;;;;;;3.40;1.77;;;;;;;11.74;50.09;93129.13;2028393;70;20160;-73
2024/04/07 03:11:10;;;;;;;3.40;2.40;;;;;;;11.86;49.58;93135.53;2028967;70;20184;-74
2024/04/07 03:13:36;;;;;;;3.90;2.00;;;;;;;11.78;50.68;93131.47;2028403;70;20160;-74
2024/04/07 03:16:10;;;;;;;2.97;1.55;;;;;;;11.65;50.89;93115.84;2028411;70;20493;-73
2024/04/07 03:18:36;;;;;;;2.17;1.30;;;;;;;11.82;50.56;93134.53;2028488;70;20155;-71
2024/04/07 03:21:02;;;;;;;4.53;1.75;;;;;;;11.66;51.35;93120.16;2028430;70;20145;-73
2024/04/07 03:23:28;;;;;;;4.30;1.40;;;;;;;11.69;51.01;93127.41;2024973;70;20148;-72
2024/04/07 03:25:54;;;;;;;5.50;1.50;;;;;;;11.68;50.34;93125.91;2028329;70;20149;-72
2024/04/07 03:28:20;;;;;;;2.03;1.10;;;;;;;11.81;48.88;93128.16;2028472;70;20176;-73
2024/04/07 03:30:45;;;;;;;2.53;1.65;;;;;;;11.91;49.94;93137.28;2028311;70;20184;-69
2024/04/07 03:33:11;;;;;;;6.65;2.90;;;;;;;11.68;49.91;93134.38;2028497;70;20175;-70
2024/04/07 03:35:37;;;;;;;3.42;2.00;;;;;;;11.56;50.60;93139.25;2028250;70;20613;-71
2024/04/07 03:38:02;;;;;;;5.22;3.97;;;;;;;11.35;51.69;93125.91;2024797;70;20141;-72
2024/04/07 03:40:28;;;;;;;10.18;3.45;;;;;;;11.56;50.47;93133.59;2028148;70;20163;-74
2024/04/07 03:42:54;;;;;;;5.85;3.70;;;;;;;11.42;50.77;93131.34;2028302;70;20256;-72
2024/04/07 03:45:20;;;;;;;9.10;4.40;;;;;;;11.43;50.29;93130.00;2028367;70;20595;-74
2024/04/07 03:47:46;;;;;;;6.20;2.65;;;;;;;11.40;51.01;93125.56;2028394;70;20233;-73
2024/04/07 03:50:12;;;;;;;4.57;2.45;;;;;;;11.63;50.51;93141.81;2028447;70;20228;-75
2024/04/07 03:52:39;;;;;;;6.45;2.40;;;;;;;11.61;51.30;93138.16;2028383;70;20156;-74
2024/04/07 03:55:06;;;;;;;4.43;2.20;;;;;;;11.62;50.41;93148.09;2028339;70;20152;-71
2024/04/07 03:57:32;;;;;;;5.20;1.90;;;;;;;11.55;50.69;93149.06;2028214;70;20153;-73
2024/04/07 03:59:58;;;;;;;4.13;2.03;;;;;;;11.54;50.55;93147.56;2028091;70;20265;-73
2024/04/07 04:02:31;;;;;;;3.65;1.90;;;;;;;11.58;50.30;93154.19;2028374;70;20187;-73
2024/04/07 04:05:02;;;;;;;2.47;1.40;;;;;;;11.53;49.09;93148.91;2028389;70;20537;-73
2024/04/07 04:07:28;;;;;;;4.47;1.30;;;;;;;11.58;49.22;93147.81;2028273;70;20324;-71
2024/04/07 04:09:56;;;;;;;4.93;1.25;;;;;;;11.63;48.27;93153.09;2028145;70;20239;-74
2024/04/07 04:12:22;;;;;;;1.52;1.10;;;;;;;11.67;49.64;93142.09;2028110;70;20240;-71
2024/04/07 04:14:50;;;;;;;5.20;1.80;;;;;;;11.38;50.04;93155.72;2027953;70;20183;-72
2024/04/07 04:17:16;;;;;;;3.00;1.90;;;;;;;11.23;50.51;93144.88;2028350;70;20144;-73
2024/04/07 04:19:42;;;;;;;4.25;1.67;;;;;;;11.09;52.00;93145.41;2028251;70;20160;-72
2024/04/07 04:22:08;;;;;;;6.57;1.73;;;;;;;11.16;51.02;93155.72;2028300;70;20161;-72
2024/04/07 04:24:35;;;;;;;2.55;1.50;;;;;;;11.40;50.70;93150.19;2028297;70;20155;-72
2024/04/07 04:27:03;;;;;;;4.57;1.17;;;;;;;11.26;50.28;93149.28;2028574;70;20232;-72
2024/04/07 04:29:29;;;;;;;2.17;1.30;;;;;;;11.38;48.66;93156.44;2028055;70;20144;-72
2024/04/07 04:31:56;;;;;;;1.67;1.10;;;;;;;11.48;48.42;93150.00;2028235;70;20157;-72
2024/04/07 04:34:22;;;;;;;4.00;1.30;;;;;;;11.31;49.39;93151.00;2028213;70;20169;-72
2024/04/07 04:36:49;;;;;;;3.22;1.20;;;;;;;11.13;49.64;93159.00;2027454;70;20144;-71
2024/04/07 04:39:15;;;;;;;3.97;1.45;;;;;;;11.23;50.04;93161.78;2024780;70;20317;-71
2024/04/07 04:41:42;;;;;;;2.88;1.45;;;;;;;11.19;50.15;93167.88;2024754;70;20308;-71
2024/04/07 04:44:08;;;;;;;6.00;1.50;;;;;;;11.17;51.07;93162.09;2028201;70;20245;-72
2024/04/07 04:46:33;;;;;;;1.92;1.10;;;;;;;11.19;51.55;93165.06;2028272;70;20556;-72
2024/04/07 04:49:00;;;;;;;3.13;1.25;;;;;;;11.19;51.06;93177.06;2028061;70;20143;-71
2024/04/07 04:51:26;;;;;;;3.17;1.10;;;;;;;10.78;51.01;93173.63;2028296;70;20180;-74
2024/04/07 04:53:51;;;;;;;8.65;1.30;;;;;;;10.93;50.98;93175.31;2028340;70;20178;-72
2024/04/07 04:56:17;;;;;;;2.97;1.27;;;;;;;11.07;50.53;93158.63;2024718;70;20148;-72
2024/04/07 04:58:42;;;;;;;3.53;1.10;;;;;;;10.97;51.04;93169.22;2028087;70;20147;-72
2024/04/07 05:01:16;;;;;;;2.75;1.10;;;;;;;11.16;51.31;93167.00;2028335;70;20157;-72
2024/04/07 05:03:44;;;;;;;2.65;1.20;;;;;;;11.26;50.67;93178.19;2028149;70;20171;-72
2024/04/07 05:06:13;;;;;;;2.78;1.17;;;;;;;11.26;50.33;93172.56;2027931;70;20136;-73
2024/04/07 05:08:40;;;;;;;4.57;1.40;;;;;;;10.96;52.41;93170.56;2028274;70;20125;-72
2024/04/07 05:11:06;;;;;;;5.03;1.70;;;;;;;11.05;51.61;93167.69;2028309;70;20216;-72
2024/04/07 05:13:32;;;;;;;4.22;1.40;;;;;;;11.25;51.70;93176.72;2028126;70;20165;-73
2024/04/07 05:15:59;;;;;;;2.55;1.30;;;;;;;11.15;51.52;93176.06;2024812;70;20157;-74
2024/04/07 05:18:26;;;;;;;4.03;1.48;;;;;;;11.25;52.49;93178.81;2028386;70;20216;-72
2024/04/07 05:20:55;;;;;;;4.95;1.70;;;;;;;11.38;51.82;93172.63;2028368;70;20152;-73
2024/04/07 05:23:21;;;;;;;5.00;1.80;;;;;;;11.34;51.14;93166.72;2028163;70;20172;-74
2024/04/07 05:25:47;;;;;;;5.68;1.80;;;;;;;11.41;51.51;93169.34;2028282;70;20603;-73
2024/04/07 05:28:12;;;;;;;4.90;1.40;;;;;;;11.53;51.55;93174.28;2028231;70;20195;-72
2024/04/07 05:30:38;;;;;;;13.60;1.70;;;;;;;11.66;51.16;93174.47;2028245;70;20614;-72
2024/04/07 05:33:05;;;;;;;3.05;1.90;;;;;;;11.33;51.45;93171.63;2028217;70;20145;-72
2024/04/07 05:35:34;;;;;;;4.50;2.15;;;;;;;11.44;51.33;93173.75;2028300;70;20180;-73
2024/04/07 05:38:00;;;;;;;4.20;2.10;;;;;;;11.58;50.66;93168.28;2028229;70;20341;-72
2024/04/07 05:40:26;;;;;;;3.78;2.13;;;;;;;11.72;51.37;93171.28;2027554;70;20183;-72
2024/04/07 05:42:53;;;;;;;6.10;2.10;;;;;;;11.84;51.41;93177.00;2028234;70;20561;-71
2024/04/07 05:45:19;;;;;;;4.63;1.88;;;;;;;11.76;52.58;93182.09;2028303;70;20164;-73
2024/04/07 05:47:49;;;;;;;4.22;2.03;;;;;;;11.92;51.88;93188.81;2028413;70;20149;-74
2024/04/07 05:50:15;;;;;;;4.28;1.88;;;;;;;11.97;51.38;93190.53;2028324;70;20172;-71
2024/04/07 05:52:41;;;;;;;3.20;1.67;;;;;;;11.99;52.12;93192.75;2028254;70;20255;-71
2024/04/07 05:55:08;;;;;;;3.85;2.22;;;;;;;11.70;52.14;93180.38;2024841;70;20161;-73
2024/04/07 05:57:44;;;;;;;5.55;1.90;;;;;;;12.07;52.15;93191.19;2027966;70;20243;-74
2024/04/07 06:00:10;;;;;;;7.28;2.63;;;;;;;12.10;51.10;93197.69;2028210;70;20144;-74
2024/04/07 06:02:38;;;;;;;4.47;2.25;;;;;;;12.24;51.37;93192.94;2024760;70;20172;-73
2024/04/07 06:05:04;;;;;;;6.80;2.20;;;;;;;12.44;50.33;93193.44;2028174;70;20651;-73
2024/04/07 06:07:30;;;;;;;5.63;2.15;;;;;;;12.63;49.06;93181.91;2028298;70;20172;-75
2024/04/07 06:09:56;;;;;;;10.15;2.33;;;;;;;12.70;49.88;93186.59;2024707;70;20133;-72
2024/04/07 06:12:22;;;;;;;5.95;2.25;;;;;;;12.85;49.40;93191.00;2024663;70;20224;-73
2024/04/07 06:14:48;;;;;;;7.28;2.30;;;;;;;12.86;51.18;93197.41;2027643;70;20213;-72
2024/04/07 06:17:16;;;;;;;4.70;2.53;;;;;;;12.93;50.19;93187.94;2028226;70;20579;-72
2024/04/07 06:19:43;;;;;;;4.10;2.22;;;;;;;13.11;50.10;93193.94;2028087;70;20148;-72
2024/04/07 06:22:09;;;;;;;4.82;2.40;;;;;;;13.25;51.05;93194.81;2028054;70;20228;-73
2024/04/07 06:24:35;;;;;;;7.65;3.35;;;;;;;13.03;51.26;93191.38;2028087;70;20149;-71
2024/04/07 06:27:01;;;;;;;8.57;3.10;;;;;;;13.09;50.61;93191.00;2024507;70;20211;-72
2024/04/07 06:29:26;;;;;;;8.50;3.50;;;;;;;13.37;48.82;93189.13;2027949;70;20168;-71
2024/04/07 06:31:52;;;;;;;6.72;3.65;;;;;;;13.59;49.19;93193.25;2028069;70;20153;-75
2024/04/07 06:34:18;;;;;;;10.82;3.30;;;;;;;13.58;49.81;93183.28;2028129;70;20567;-72
2024/04/07 06:36:43;;;;;;;8.57;2.97;;;;;;;13.83;50.70;93196.72;2028033;70;20153;-73
2024/04/07 06:39:09;;;;;;;8.25;3.30;;;;;;;13.91;51.59;93196.44;2028376;70;20192;-73
2024/04/07 06:41:34;;;;;;;6.85;3.35;;;;;;;13.92;51.31;93195.81;2028641;70;20133;-73
2024/04/07 06:44:01;;;;;;;7.78;2.90;;;;;;;14.04;49.69;93189.38;2028482;70;20251;-73
2024/04/07 06:46:27;;;;;;;7.60;3.47;;;;;;;14.09;49.32;93194.63;2028391;70;20252;-73
2024/04/07 06:48:54;;;;;;;7.53;4.03;;;;;;;14.31;50.18;93200.06;2028594;70;20685;-75
2024/04/07 06:51:19;;;;;;;8.27;4.00;;;;;;;14.51;46.69;93194.78;2028636;70;20206;-72
2024/04/07 06:53:45;;;;;;;9.98;4.05;;;;;;;14.49;49.72;93195.41;2028706;70;20292;-75
2024/04/07 06:56:11;;;;;;;6.72;4.30;;;;;;;14.56;50.50;93202.16;2028622;70;20505;-72
2024/04/07 06:58:37;;;;;;;8.25;3.90;;;;;;;14.74;50.75;93201.03;2025084;70;20257;-72
2024/04/07 07:01:03;;;;;;;8.95;4.57;;;;;;;14.93;49.06;93196.31;2028754;70;20201;-74
2024/04/07 07:03:28;;;;;;;8.93;4.80;;;;;;;14.86;49.38;93203.03;2028407;70;20144;-73
2024/04/07 07:05:54;;;;;;;8.20;4.07;;;;;;;15.01;47.76;93196.75;2028592;70;20588;-75
2024/04/07 07:08:20;;;;;;;7.35;3.70;;;;;;;15.15;47.49;93191.06;2029147;70;20183;-75
2024/04/07 07:10:59;;;;;;;8.68;3.58;;;;;;;15.30;45.95;93198.94;2028948;70;20157;-75
2024/04/07 07:13:30;;;;;;;10.00;3.95;;;;;;;15.21;47.89;93202.72;2028695;70;20688;-74
2024/04/07 07:15:57;;;;;;;8.52;3.88;;;;;;;15.29;50.00;93191.81;2028711;70;20317;-74
2024/04/07 07:18:23;;;;;;;8.57;3.53;;;;;;;15.46;47.08;93194.09;2028796;70;20502;-75
2024/04/07 07:20:49;;;;;;;6.82;3.30;;;;;;;15.38;50.47;93184.44;2025179;70;20153;-74
2024/04/07 07:23:15;;;;;;;9.55;4.55;;;;;;;15.58;48.54;93191.16;2028534;70;20160;-74
2024/04/07 07:25:43;;;;;;;5.57;4.00;;;;;;;15.58;51.06;93179.06;2028721;70;20140;-75
2024/04/07 07:28:10;;;;;;;9.07;3.60;;;;;;;15.81;50.87;93198.72;2028696;70;20168;-73
2024/04/07 07:30:36;;;;;;;10.52;4.38;;;;;;;15.67;50.31;93193.06;2028616;70;20168;-73
2024/04/07 07:33:03;;;;;;;6.53;4.18;;;;;;;15.77;50.69;93192.81;2025112;70;20149;-75
2024/04/07 07:35:30;;;;;;;8.55;4.30;;;;;;;15.87;51.35;93201.09;2020068;70;20224;-73
2024/04/07 07:37:55;;;;;;;9.93;4.97;;;;;;;16.12;48.66;93198.06;2028217;70;20157;-76
2024/04/07 07:40:21;;;;;;;7.63;4.72;;;;;;;16.34;49.11;93209.03;2028404;70;20163;-76
2024/04/07 07:42:47;;;;;;;10.70;5.20;;;;;;;16.52;50.89;93204.94;2028440;70;20167;-76
2024/04/07 07:45:13;;;;;;;8.93;4.47;;;;;;;16.77;50.03;93203.28;2025305;70;20494;-74
2024/04/07 07:47:39;;;;;;;7.93;5.22;;;;;;;17.07;49.12;93203.91;2028679;70;20152;-74
2024/04/07 07:50:04;;;;;;;10.75;5.18;;;;;;;17.44;48.78;93203.41;2028629;70;20573;-75
2024/04/07 07:52:30;;;;;;;16.58;6.25;;;;;;;17.81;47.00;93201.41;2028686;70;20587;-73
2024/04/07 07:54:56;;;;;;;7.93;5.25;;;;;;;18.17;45.17;93205.03;2028432;70;20140;-76
2024/04/07 07:57:21;;;;;;;7.75;3.70;;;;;;;17.95;43.62;93194.19;2028591;70;20570;-74
2024/04/07 07:59:47;;;;;;;5.90;2.30;;;;;;;18.29;40.48;93199.81;2028386;70;20163;-74
2024/04/07 08:02:12;;;;;;;6.22;2.90;;;;;;;18.80;40.93;93196.13;2028425;70;20617;-74
2024/04/07 08:04:38;;;;;;;6.32;2.50;;;;;;;19.36;40.39;93196.78;2028391;70;20147;-72
2024/04/07 08:07:04;;;;;;;2.63;1.88;;;;;;;19.57;37.62;93192.53;2025073;70;20224;-74
2024/04/07 08:09:29;;;;;;;5.28;2.30;;;;;;;19.64;37.38;93196.34;2028422;70;20152;-74
2024/04/07 08:11:56;;;;;;;3.60;1.90;;;;;;;19.70;37.07;93194.44;2028614;70;20217;-74
2024/04/07 08:14:21;;;;;;;2.80;1.85;;;;;;;20.20;35.88;93194.69;2028532;70;20148;-75
2024/04/07 08:16:47;;;;;;;2.20;1.00;;;;;;;20.40;33.62;93193.91;2024985;70;20148;-75
2024/04/07 08:19:13;;;;;;;1.85;1.10;;;;;;;20.52;34.27;93200.75;2028452;70;20154;-74
2024/04/07 08:21:39;;;;;;;1.67;1.13;;;;;;;20.49;34.04;93192.78;2028728;70;20536;-73
2024/04/07 08:24:05;;;;;;;2.35;1.30;;;;;;;21.34;33.94;93186.03;2028509;70;20356;-74
2024/04/07 08:26:31;;;;;;;3.13;1.30;;;;;;;21.31;34.11;93193.88;2028267;70;20236;-75
2024/04/07 08:28:57;;;;;;;2.72;1.25;;;;;;;21.33;32.81;93183.88;2028341;70;20703;-76
2024/04/07 08:31:22;;;;;;;3.45;1.23;;;;;;;21.89;33.94;93192.56;2028630;70;20571;-75
2024/04/07 08:33:48;;;;;;;1.20;0.90;;;;;;;21.60;31.35;93194.66;2028588;70;20157;-73
2024/04/07 08:36:13;;;;;;;2.03;1.08;;;;;;;21.71;31.79;93199.25;2028707;70;20170;-73
2024/04/07 08:38:39;;;;;;;1.02;0.93;;;;;;;22.09;30.41;93193.09;2028582;70;20589;-75
2024/04/07 08:41:11;;;;;;;2.08;0.98;;;;;;;22.36;29.80;93188.78;2028233;70;20321;-75
2024/04/07 08:43:40;;;;;;;2.42;0.90;;;;;;;22.86;30.54;93182.75;2028438;70;20160;-75
2024/04/07 08:46:11;;;;;;;2.53;1.30;;;;;;;22.83;30.87;93187.00;2028344;70;20305;-74
2024/04/07 08:48:41;;;;;;;4.50;1.20;;;;;;;23.17;31.91;93178.44;2028624;70;20156;-75
2024/04/07 08:51:11;;;;;;;2.13;1.02;;;;;;;23.65;31.67;93180.19;2028465;70;20267;-75
2024/04/07 08:53:40;;;;;;;1.23;1.00;;;;;;;24.14;30.85;93176.06;2028495;70;20157;-76
2024/04/07 08:56:10;;;;;;;2.20;1.05;;;;;;;24.34;30.17;93187.19;2028303;70;20160;-75
2024/04/07 08:58:37;;;;;;;2.47;1.88;;;;;;;23.92;29.53;93179.28;2024803;70;20293;-74
2024/04/07 09:01:03;;;;;;;7.15;4.53;;;;;;;24.53;30.49;93183.22;2028213;70;20236;-76
2024/04/07 09:03:30;;;;;;;5.53;3.70;;;;;;;25.40;29.46;93182.34;2028124;70;20294;-74
2024/04/07 09:05:56;;;;;;;3.58;1.67;;;;;;;26.53;27.72;93185.09;2028378;70;20160;-76
2024/04/07 09:08:22;;;;;;;1.17;1.08;;;;;;;23.99;26.76;93189.44;2028373;70;20160;-75
2024/04/07 09:10:48;;;;;;;4.07;1.38;;;;;;;24.16;27.33;93184.00;2028467;70;20149;-75
2024/04/07 09:13:16;;;;;;;3.42;2.35;;;;;;;25.31;27.38;93181.53;2024877;70;20555;-75
2024/04/07 09:15:43;;;;;;;1.85;1.10;;;;;;;25.26;26.98;93182.91;2028585;70;20156;-78
2024/04/07 09:18:11;;;;;;;1.50;0.90;;;;;;;26.29;25.65;93185.53;2028397;70;20133;-74
2024/04/07 09:20:37;;;;;;;2.88;0.98;;;;;;;26.64;26.46;93177.22;2027921;70;20145;-74
2024/04/07 09:23:03;;;;;;;1.95;1.13;;;;;;;26.58;26.13;93172.84;2028389;70;20228;-77
2024/04/07 09:25:30;;;;;;;2.83;2.13;;;;;;;25.22;26.96;93171.31;2028438;70;20164;-75
2024/04/07 09:27:57;;;;;;;3.08;1.75;;;;;;;25.87;26.84;93165.63;2024603;70;20141;-74
2024/04/07 09:30:24;;;;;;;1.13;0.82;;;;;;;26.82;26.72;93174.47;2028049;70;20156;-77
2024/04/07 09:32:50;;;;;;;2.88;1.00;;;;;;;26.96;25.96;93154.34;2028351;70;20172;-76
2024/04/07 09:35:16;;;;;;;1.75;0.90;;;;;;;27.24;25.81;93159.59;2028290;70;20179;-77
2024/04/07 09:37:42;;;;;;;0.80;0.80;;;;;;;27.22;26.89;93159.59;2028027;70;20175;-78
2024/04/07 09:40:08;;;;;;;1.00;0.65;;;;;;;27.62;25.62;93149.66;2028414;70;20168;-78
2024/04/07 09:42:38;;;;;;;2.95;0.93;;;;;;;28.42;25.01;93150.66;2028496;70;20184;-77
2024/04/07 09:45:07;;;;;;;2.22;0.90;;;;;;;27.07;25.89;93135.63;2028432;70;20538;-75
2024/04/07 09:47:44;;;;;;;1.02;0.80;;;;;;;27.81;25.83;93148.34;2028513;70;20176;-74
2024/04/07 09:50:44;;;;;;;1.80;1.00;;;;;;;28.80;25.23;93146.31;2028432;70;20349;-76
2024/04/07 09:53:19;;;;;;;3.65;0.70;;;;;;;27.98;24.13;93139.69;2014397;71;20668;-76
2024/04/07 09:55:50;;;;;;;2.30;0.90;;;;;;;29.54;23.44;93133.13;2014463;71;20178;-76
2024/04/07 09:58:16;;;;;;;1.33;1.08;;;;;;;29.65;23.89;93138.94;2014130;71;20249;-77
2024/04/07 10:00:42;;;;;;;1.73;1.13;;;;;;;28.94;24.25;93143.41;2014336;71;20208;-75
2024/04/07 10:03:08;;;;;;;2.72;1.00;;;;;;;28.23;24.08;93137.56;2014497;71;20154;-78
2024/04/07 10:05:34;;;;;;;1.60;0.90;;;;;;;27.82;25.00;93134.59;2014239;71;20565;-76
2024/04/07 10:08:00;;;;;;;1.90;0.75;;;;;;;28.46;24.26;93138.34;2014003;71;20245;-78
2024/04/07 10:10:25;;;;;;;1.98;0.85;;;;;;;28.20;25.84;93139.00;2014309;71;20548;-77
2024/04/07 10:12:53;;;;;;;1.20;0.70;;;;;;;29.11;24.62;93136.16;2014366;71;20193;-74
2024/04/07 10:15:20;;;;;;;2.65;1.02;;;;;;;28.49;25.05;93125.31;2014796;71;20146;-74
2024/04/07 10:17:46;;;;;;;2.05;1.20;;;;;;;30.13;24.41;93117.63;2012250;71;20165;-77
2024/04/07 10:20:14;;;;;;;4.80;1.00;;;;;;;29.79;24.29;93122.19;2014808;71;20555;-76
2024/04/07 10:22:42;;;;;;;2.15;0.80;;;;;;;31.17;24.81;93121.94;2014664;71;20154;-75
2024/04/07 10:25:09;;;;;;;2.30;0.90;;;;;;;30.66;22.31;93108.56;2014521;71;20158;-77
2024/04/07 10:27:45;;;;;;;1.52;0.80;;;;;;;30.80;23.50;93104.84;2012660;70;20164;-75
2024/04/07 10:30:12;;;;;;;1.52;0.80;;;;;;;33.34;22.74;93114.56;2028711;70;20197;-77
2024/04/07 10:32:40;;;;;;;1.40;0.95;;;;;;;31.98;22.50;93111.56;2028838;70;20155;-78
2024/04/07 10:35:10;;;;;;;2.60;0.80;;;;;;;31.40;23.58;93107.91;2028741;70;20537;-74
2024/04/07 10:37:41;;;;;;;2.10;0.90;;;;;;;32.70;22.36;93109.06;2028675;70;20156;-75
2024/04/07 10:40:09;;;;;;;0.93;0.80;;;;;;;32.72;22.87;93099.59;2028820;70;20152;-78
2024/04/07 10:42:37;;;;;;;4.07;0.98;;;;;;;33.78;21.08;93103.50;2028647;70;20175;-75
2024/04/07 10:45:04;;;;;;;0.90;0.80;;;;;;;33.36;21.34;93103.56;2028444;70;20172;-75
2024/04/07 10:47:31;;;;;;;1.50;0.77;;;;;;;35.09;20.15;93098.34;2024937;70;20149;-78
2024/04/07 10:49:56;;;;;;;1.73;0.82;;;;;;;36.86;18.47;93092.53;2028659;70;20586;-76
2024/04/07 10:52:26;;;;;;;0.80;0.70;;;;;;;37.72;18.99;93104.34;2028674;70;20156;-75
2024/04/07 10:54:55;;;;;;;2.20;0.70;;;;;;;37.79;19.42;93091.56;2028751;70;20225;-75
2024/04/07 10:57:21;;;;;;;1.60;0.70;;;;;;;35.94;18.06;93091.69;2025128;70;20264;-75
2024/04/07 10:59:46;;;;;;;1.15;0.82;;;;;;;34.27;20.78;93076.91;2025069;70;20240;-77
2024/04/07 11:02:12;;;;;;;2.58;0.70;;;;;;;33.75;20.41;93085.31;2028505;70;20587;-76
2024/04/07 11:04:40;;;;;;;1.55;0.63;;;;;;;34.39;19.55;93094.16;2028536;70;20253;-74
2024/04/07 11:07:05;;;;;;;1.92;0.90;;;;;;;35.90;18.52;93089.59;2028657;70;20490;-77
2024/04/07 11:09:32;;;;;;;1.67;0.70;;;;;;;36.97;17.43;93090.72;2028649;70;20195;-74
2024/04/07 11:11:59;;;;;;;1.13;0.80;;;;;;;37.89;17.49;93100.06;2028753;70;20160;-74
2024/04/07 11:14:32;;;;;;;3.72;0.80;;;;;;;39.92;16.88;93086.03;2028457;70;20136;-75
2024/04/07 11:17:03;;;;;;;2.30;0.80;;;;;;;37.45;17.58;93087.66;2028811;70;20152;-75
2024/04/07 11:19:30;;;;;;;2.78;0.80;;;;;;;39.22;17.67;93100.06;2028509;70;20184;-75
2024/04/07 11:21:56;;;;;;;2.55;0.70;;;;;;;40.99;16.07;93092.09;2024606;70;20160;-75
2024/04/07 11:24:22;;;;;;;1.83;0.70;;;;;;;41.50;16.77;93092.53;2028452;70;20176;-77
2024/04/07 11:26:51;;;;;;;1.70;0.80;;;;;;;40.81;17.81;93078.94;2025163;70;20204;-74
2024/04/07 11:29:17;;;;;;;2.10;0.88;;;;;;;40.77;17.16;93081.34;2028442;70;20244;-75
2024/04/07 11:31:49;;;;;;;2.78;0.70;;;;;;;43.86;17.11;93089.91;2028489;70;20161;-77
2024/04/07 11:34:19;;;;;;;1.40;0.90;;;;;;;44.44;17.17;93078.19;2028626;70;20596;-77